Latest Weather Observations for Burketown Airport

IDQ60801

Issued at 7:35 pm EST Sunday 23 November 2014 (issued every 30 minutes, with the page automatically refreshed every 10 minutes)

About weather observations | Map of weather stations | Latest weather observations for QLD | Other Formats
Station Details ID: 029077 Name: BURKETOWN AIRPORT Lat: -17.75 Lon: 139.54 Height: 5.7 m
Data from the previous 72 hours. | See also: Recent months at Burketown Airport
Date/Time
EST
Temp
°C
App
Temp
°C
Dew
Point
Rel
Hum
%
Delta-T
°C
Wind Press
QNH
hPa
Press
MSL
hPa
Rain
since 9 am
mm
Dir
 
Spd
km/h
Gust
km/h
Spd
kts
Gust
kts
23/07:30pm 28.0 30.4 20.8 65 4.8 W 9 15 5 8 1008.9 - 0.0
23/07:00pm 27.6 28.0 20.7 66 4.6 NW 19 24 10 13 1008.0 - 0.0
23/06:30pm 27.6 30.5 20.7 66 4.6 W 6 15 3 8 1008.7 - 0.0
23/06:00pm 27.7 29.3 20.0 63 5.0 SE 11 32 6 17 1008.8 1008.7 0.0
23/05:30pm 29.7 27.3 20.0 56 6.4 SE 32 50 17 27 1009.3 - 0.0
23/05:27pm 29.7 28.1 20.0 56 6.4 SE 28 48 15 26 1009.1 - 0.0
23/05:15pm 33.4 34.9 24.3 59 6.4 ENE 24 32 13 17 1009.1 - 0.0
23/05:00pm 33.8 33.5 23.2 54 7.3 N 30 39 16 21 1007.1 - 0.0
23/04:30pm 34.9 34.4 23.6 52 7.9 N 32 41 17 22 1007.6 - 0.0
23/04:02pm 35.9 34.8 22.5 46 9.2 N 32 50 17 27 1007.1 - 0.0
23/04:00pm 35.5 34.0 22.1 45 9.2 N 33 50 18 27 1007.0 - 0.0
23/03:30pm 36.4 34.9 21.8 42 10.0 NNE 32 41 17 22 1007.5 - 0.0
23/03:00pm 36.6 36.2 21.6 41 10.3 N 26 37 14 20 1007.7 1007.6 0.0
23/02:30pm 37.0 37.0 23.1 44 9.7 N 28 39 15 21 1007.8 - 0.0
23/02:00pm 37.0 38.0 24.2 48 9.0 N 26 41 14 22 1008.6 - 0.0
23/01:30pm 36.8 37.1 23.6 46 9.2 NNE 28 37 15 20 1009.2 - 0.0
23/08:00am 30.0 30.8 21.4 60 5.8 NNE 19 24 10 13 1011.7 - 0.0
23/07:30am 29.1 32.3 21.6 64 5.0 NNE 7 11 4 6 1011.3 - 0.0
23/07:00am 27.9 31.1 21.7 69 4.2 N 7 11 4 6 1010.7 - 0.0
23/06:30am 26.8 29.6 21.5 72 3.5 N 9 11 5 6 1010.2 - 0.0
23/06:00am 26.9 31.3 21.4 72 3.7 CALM 0 0 0 0 1009.7 1009.6 0.0
23/05:30am 26.5 29.7 21.3 73 3.4 WNW 6 7 3 4 1009.1 - 0.0
23/04:00am 26.6 30.4 20.9 71 3.8 E 2 6 1 3 1008.5 - 0.0
23/03:00am 27.4 30.0 21.2 69 4.1 W 9 11 5 6 1008.6 1008.5 0.0
23/01:00am 27.7 30.3 20.5 65 4.7 WNW 7 9 4 5 1009.0 - 0.0
23/12:30am 27.7 29.9 20.5 65 4.7 WNW 9 11 5 6 1009.2 - 0.0
23/12:00am 28.4 29.8 20.4 62 5.3 WNW 13 15 7 8 1009.4 1009.3 0.0
 
Date/Time
EST
Temp
°C
App
Temp
°C
Dew
Point
Rel
Hum
%
Delta-T
°C
Wind Press
QNH
hPa
Press
MSL
hPa
Rain
since 9 am
mm
Dir
 
Spd
km/h
Gust
km/h
Spd
kts
Gust
kts
22/11:30pm 29.2 31.0 20.4 59 5.8 WNW 11 13 6 7 1009.8 - 0.0
22/11:00pm 30.4 31.4 20.3 54 6.7 W 15 19 8 10 1010.1 - 0.0
22/10:30pm 30.3 31.9 19.9 53 6.8 WNW 11 15 6 8 1010.3 - 0.0
22/10:00pm 30.5 32.9 21.6 59 6.0 WNW 11 15 6 8 1010.0 - 0.0
22/09:30pm 30.6 33.5 22.5 62 5.5 NW 11 13 6 7 1009.9 - 0.0
22/09:00pm 30.8 34.5 23.2 64 5.2 NW 9 11 5 6 1010.0 1009.9 0.0
22/08:30pm 31.3 34.5 23.1 61 5.6 NW 11 13 6 7 1009.9 - 0.0
22/08:00pm 31.5 34.9 24.1 65 5.2 NW 13 17 7 9 1009.4 - 0.0
22/07:30pm 31.5 34.9 24.1 65 5.2 NNW 13 15 7 8 1009.2 - 0.0
22/07:00pm 31.6 34.4 25.0 68 4.7 NNW 19 24 10 13 1008.7 - 0.0
22/06:30pm 31.7 34.3 25.5 69 4.4 N 22 28 12 15 1008.4 - 0.0
22/06:00pm 32.6 34.3 24.1 61 5.9 N 22 30 12 16 1007.9 1007.8 0.0
22/05:30pm 33.6 34.3 23.0 54 7.3 N 24 32 13 17 1007.4 - 0.0
22/05:00pm 34.1 33.9 21.2 47 8.7 N 24 30 13 16 1007.8 - 0.0
22/04:30pm 34.5 33.5 21.2 46 9.0 N 28 37 15 20 1007.5 - 0.0
22/04:00pm 37.1 35.8 19.1 35 11.9 NNE 24 32 13 17 1007.4 - 0.0
22/03:30pm 37.9 37.2 20.2 35 11.9 NNE 24 33 13 18 1007.5 - 0.0
22/03:00pm 39.4 39.0 20.1 32 13.1 NNE 22 33 12 18 1007.6 1007.5 0.0
22/02:30pm 38.6 38.9 17.9 29 13.6 NE 13 30 7 16 1008.1 - 0.0
22/02:00pm 39.4 38.7 18.6 29 13.8 NE 20 30 11 16 1008.5 - 0.0
22/01:30pm 38.8 38.2 17.5 28 13.9 NE 17 30 9 16 1009.2 - 0.0
22/01:00pm 38.4 38.5 18.3 31 13.2 ENE 15 22 8 12 1009.7 - 0.0
22/12:30pm 38.3 38.3 17.1 28 13.7 N 13 26 7 14 1010.2 - 0.0
22/12:00pm 37.1 37.3 17.6 31 12.7 NNE 13 19 7 10 1010.7 1010.6 0.0
22/11:30am 36.6 37.6 17.7 32 12.3 ENE 9 20 5 11 1011.1 - 0.0
22/11:00am 35.7 36.2 17.4 33 11.8 NNW 11 17 6 9 1011.4 - 0.0
22/10:30am 34.9 34.9 18.0 36 11.0 W 15 20 8 11 1011.6 - 0.0
22/10:00am 33.9 34.8 19.2 42 9.7 SW 13 20 7 11 1011.8 - 0.0
22/09:30am 32.0 32.6 20.3 50 7.8 W 17 24 9 13 1012.0 - 0.0
22/09:00am 31.1 32.2 21.3 56 6.6 W 17 20 9 11 1011.9 1011.8 0.0
22/08:30am 29.9 31.0 20.5 57 6.2 WNW 15 19 8 10 1011.7 - 0.0
22/08:00am 28.8 29.4 20.3 60 5.6 WNW 17 20 9 11 1011.0 - 0.0
22/07:30am 28.7 29.4 20.4 60 5.5 WNW 17 20 9 11 1010.5 - 0.0
22/07:00am 27.0 28.6 20.8 69 4.1 NNW 13 17 7 9 1010.3 - 0.0
22/06:30am 25.5 26.9 20.3 73 3.4 N 13 17 7 9 1009.8 - 0.0
22/06:00am 24.7 26.6 19.8 74 3.2 NNW 9 11 5 6 1009.8 1009.7 0.0
22/05:30am 25.1 26.2 19.7 72 3.5 N 13 17 7 9 1009.7 - 0.0
22/05:00am 24.9 26.0 19.7 73 3.4 N 13 15 7 8 1009.6 - 0.0
22/04:30am 25.1 27.3 19.7 72 3.5 W 7 9 4 5 1009.6 - 0.0
22/04:00am 26.4 27.9 19.8 67 4.3 SSW 11 13 6 7 1009.8 - 0.0
22/03:30am 27.4 28.5 19.7 63 5.0 S 13 15 7 8 1010.3 - 0.0
22/03:00am 27.9 29.0 19.7 61 5.3 S 13 17 7 9 1010.3 1010.2 0.0
22/02:30am 28.3 28.6 19.5 59 5.7 SSE 17 22 9 12 1010.6 - 0.0
22/02:00am 29.0 27.6 19.6 57 6.1 S 26 37 14 20 1011.6 - 0.0
22/01:30am 29.5 28.9 20.6 58 5.9 SE 24 39 13 21 1012.1 - 0.0
22/01:00am 29.9 31.5 23.8 70 4.2 SE 22 32 12 17 1011.7 - 0.0
22/12:31am 29.3 29.4 24.6 76 3.3 SE 32 52 17 28 1011.4 - 0.0
22/12:30am 29.4 29.0 24.7 76 3.3 SE 35 52 19 28 1011.9 - 0.0
22/12:25am 28.6 28.7 24.6 79 2.8 SE 32 50 17 27 1012.1 - 0.0
22/12:24am 28.6 29.2 24.8 80 2.7 SE 30 46 16 25 1012.2 - 0.0
22/12:00am 27.6 31.4 24.0 81 2.5 WNW 11 13 6 7 1010.3 1010.2 0.0
 
Date/Time
EST
Temp
°C
App
Temp
°C
Dew
Point
Rel
Hum
%
Delta-T
°C
Wind Press
QNH
hPa
Press
MSL
hPa
Rain
since 9 am
mm
Dir
 
Spd
km/h
Gust
km/h
Spd
kts
Gust
kts
21/11:30pm 27.9 31.7 24.1 80 2.6 WNW 11 15 6 8 1010.0 - 0.0
21/11:00pm 28.4 31.4 24.0 77 3.0 NW 15 19 8 10 1010.3 - 0.0
21/10:30pm 28.8 31.5 24.1 76 3.3 NW 17 22 9 12 1010.1 - 0.0
21/10:00pm 29.1 31.3 24.2 75 3.4 NW 20 26 11 14 1009.5 - 0.0
21/09:30pm 29.4 32.1 24.7 76 3.3 NNW 19 26 10 14 1009.1 - 0.0
21/09:00pm 29.7 32.3 24.6 74 3.6 NNW 19 26 10 14 1009.2 1009.1 0.0
21/08:30pm 30.0 31.1 24.4 72 3.9 N 26 30 14 16 1009.0 - 0.0
21/08:00pm 30.2 31.7 24.4 71 4.0 N 24 32 13 17 1008.4 - 0.0
21/07:30pm 30.6 32.4 24.3 69 4.4 N 22 30 12 16 1008.4 - 0.0
21/07:00pm 31.0 32.3 24.6 68 4.5 N 26 35 14 19 1008.0 - 0.0
21/06:30pm 31.4 32.4 24.8 68 4.6 N 28 35 15 19 1007.6 - 0.0
21/06:00pm 32.2 32.8 24.8 65 5.2 N 30 39 16 21 1007.2 1007.1 0.0
21/05:30pm 32.9 33.8 24.6 61 5.8 N 28 37 15 20 1007.3 - 0.0
21/05:00pm 33.6 34.2 24.2 58 6.6 N 28 39 15 21 1007.3 - 0.0
21/04:30pm 34.7 35.4 24.3 54 7.3 N 28 39 15 21 1007.3 - 0.0
21/04:00pm 34.9 35.2 23.6 52 7.9 N 28 35 15 19 1007.6 - 0.0
21/03:30pm 35.5 35.9 23.8 50 8.2 N 28 39 15 21 1008.0 - 0.0
21/03:00pm 35.0 36.1 23.7 52 7.9 N 24 33 13 18 1008.3 1008.2 0.0
21/02:30pm 35.6 36.8 24.5 52 7.8 N 26 39 14 21 1008.7 - 0.0
21/02:00pm 35.6 36.5 23.9 51 8.2 N 26 37 14 20 1009.2 - 0.0
21/01:30pm 36.2 37.8 23.8 49 8.7 NNE 22 33 12 18 1009.7 - 0.0
21/01:00pm 36.7 38.5 24.2 48 8.8 NNE 22 35 12 19 1010.3 - 0.0
21/12:30pm 36.0 37.6 23.9 49 8.5 N 22 39 12 21 1010.7 - 0.0
21/12:00pm 35.6 37.4 24.8 53 7.7 NNE 24 35 13 19 1011.3 1011.2 0.0
21/11:30am 36.6 37.9 24.1 48 8.8 NNE 24 35 13 19 1011.6 - 0.0
21/11:00am 34.8 36.0 23.2 51 8.1 NNE 22 32 12 17 1011.8 - 0.0
21/10:30am 34.7 35.2 22.7 49 8.3 NNE 24 35 13 19 1012.0 - 0.0
21/10:00am 35.0 36.7 24.0 53 7.7 NNE 22 35 12 19 1012.2 - 0.0
21/09:30am 33.2 34.0 23.2 55 6.9 N 24 30 13 16 1012.1 - 0.0
21/09:00am 32.4 35.4 23.3 58 6.3 NNE 13 22 7 12 1012.3 1012.2 0.0
21/08:30am 31.5 34.6 23.6 63 5.5 NE 13 17 7 9 1012.1 - 0.0
21/08:00am 29.8 34.1 23.7 70 4.2 N 7 13 4 7 1011.8 - 0.0
21/07:30am 29.3 33.6 24.2 74 3.5 ENE 9 11 5 6 1011.4 - 0.0
21/07:00am 27.6 31.6 23.8 80 2.6 NE 9 13 5 7 1010.9 - 0.0
21/06:30am 25.9 29.3 24.1 90 1.2 NE 13 15 7 8 1010.4 - 0.0
21/06:00am 25.6 31.6 24.2 92 1.0 CALM 0 0 0 0 1009.6 1009.5 0.0
21/05:30am 25.6 30.2 23.8 90 1.2 WSW 6 7 3 4 1008.9 - 0.0
21/05:00am 25.7 30.0 23.6 88 1.4 W 7 9 4 5 1008.3 - 0.0
21/04:30am 25.8 29.8 23.7 88 1.4 W 9 11 5 6 1008.2 - 0.0
21/04:00am 26.2 30.2 23.7 86 1.7 W 9 11 5 6 1007.9 - 0.0
21/03:30am 26.6 30.3 23.9 85 1.9 WNW 11 15 6 8 1007.9 - 0.0
21/03:00am 26.9 30.7 24.0 84 2.0 WNW 11 13 6 7 1007.9 1007.8 0.0
21/02:30am 27.3 30.7 24.0 82 2.3 WNW 13 15 7 8 1008.1 - 0.0
21/02:00am 27.4 30.4 24.0 82 2.3 WNW 15 17 8 9 1008.1 - 0.0
21/01:30am 27.6 30.2 24.0 81 2.5 WNW 17 19 9 10 1008.3 - 0.0
21/01:00am 27.8 30.0 24.0 80 2.6 WNW 19 24 10 13 1008.5 - 0.0
21/12:30am 28.0 30.6 24.0 79 2.8 NW 17 24 9 13 1008.8 - 0.0
21/12:00am 28.3 30.4 24.1 78 2.9 NW 20 26 11 14 1009.2 1009.1 0.0
 
Date/Time
EST
Temp
°C
App
Temp
°C
Dew
Point
Rel
Hum
%
Delta-T
°C
Wind Press
QNH
hPa
Press
MSL
hPa
Rain
since 9 am
mm
Dir
 
Spd
km/h
Gust
km/h
Spd
kts
Gust
kts
20/11:30pm 28.4 30.8 24.2 78 2.9 NW 19 24 10 13 1009.4 - 0.0
20/11:00pm 28.7 30.9 24.3 77 3.1 NNW 20 30 11 16 1009.6 - 0.0
20/10:30pm 28.9 31.1 24.2 76 3.3 NNW 20 30 11 16 1009.7 - 0.0
20/10:00pm 29.2 31.4 24.3 75 3.4 NNW 20 26 11 14 1009.6 - 0.0
20/09:30pm 29.4 31.6 24.0 72 3.7 NNW 19 28 10 15 1009.7 - 0.0
20/09:00pm 29.6 31.4 24.2 73 3.8 N 22 26 12 14 1009.6 1009.5 0.0
20/08:30pm 29.8 31.7 24.4 73 3.8 N 22 32 12 17 1009.5 - 0.0
20/08:00pm 29.5 31.6 25.3 78 3.0 N 24 32 13 17 1009.2 - 0.0

Other Formats:

Comma delimited format used in spreadsheet applications
http://www.bom.gov.au/fwo/IDQ60801/IDQ60801.94260.axf

JavaScript Object Notation format (JSON) in row-major order
http://www.bom.gov.au/fwo/IDQ60801/IDQ60801.94260.json